Terminal Aerodrome Forecast
Issued by NWS Jackson, KY

Home | Current Version | Previous Version | Text Only | Print | Product List | Glossary On
Versions: 1 2 3 4 5 6 7 8 9 10 11 12 13 14 15 16 17 18 19 20
734
FTUS43 KJKL 091200 AAA
TAFLOZ
TAF AMD
KLOZ 091200Z 0912/1012 29008KT 2SM -SN VCSH BKN019 OVC030
     FM091500 28006G16KT 6SM -SN BKN010 OVC040=

USA.gov is the U.S. government's official web portal to all federal, state and local government web resources and services.